• Join FlightAware (Why Join?)
  • Login
  • US Flag 
08:51AM EDT


 

Airport Tracker/Info


-or-


 

Live Flight TrackerFlight Track Log ✈ AWE3397 ✈ 16-Apr-2013 ✈ KPHL - KMSY

Flight Track Log - Related Links

Times and Time Zones

All times are in EDT time to prevent confusion due to time zone crossing. See the AWE3397 flight status page for this flight to view local times or setup timezone preferences in your user account.

Time Position Orientation Groundspeed Altitude Reporting Facility
EDT Latitude Longitude Course Direction KTS MPH feet Rate Location/Type
08:29AM 39.8833 -75.2167 261° West 152 175 1,100  Level Philadelphia TRACON
08:30AM 39.8850 -75.1953 84° East 164 189 1,500 1,080 Climbing FAA TRACON SMA TRACON (SMA)
08:30AM 39.8897 -75.1828 64° Northeast 172 198 1,800 1,440 Climbing FAA TRACON SMA TRACON (SMA)
08:30AM 39.9044 -75.1578 52° Northeast 241 277 2,400 2,220 Climbing FAA TRACON SMA TRACON (SMA)
08:31AM 39.9250 -75.1528 11° North 250 288 3,300 2,820 Climbing FAA TRACON SMA TRACON (SMA)
08:31AM 39.9511 -75.1678 336° Northwest 262 302 4,300 3,300 Climbing FAA TRACON SMA TRACON (SMA)
08:31AM 39.9714 -75.1819 332° Northwest 268 308 5,500 3,120 Climbing FAA TRACON SMA TRACON (SMA)
08:32AM 39.8333 -75.6439 270° West  Level FlightAware Approximate
08:32AM 39.9847 -75.2036 309° West 254 292 6,400  Level FAA TRACON SMA TRACON (SMA)
08:32AM 39.9808 -75.2386 262° West 261 300 7,400 3,000 Climbing FAA TRACON SMA TRACON (SMA)
08:32AM 39.9750 -75.2664 255° West 266 306 8,400 3,300 Climbing FAA TRACON SMA TRACON (SMA)
08:33AM 39.8328 -75.7863 258° West  Level FlightAware Approximate
08:33AM 39.9664 -75.3003 252° West 262 302 9,600  Level FAA TRACON SMA TRACON (SMA)
08:33AM 39.9583 -75.3297 250° West 294 338 9,900 600 Climbing FAA TRACON SMA TRACON (SMA)
08:33AM 39.9506 -75.3606 252° West 304 350 10,000 120 Climbing FAA TRACON SMA TRACON (SMA)
08:34AM 39.8097 -75.9256 258° West  Level FlightAware Approximate
08:34AM 39.9400 -75.4017 251° West 319 367 10,000  Level FAA TRACON SMA TRACON (SMA)
08:34AM 39.9314 -75.4361 252° West 322 371 10,000  Level FAA TRACON SMA TRACON (SMA)
08:34AM 39.9228 -75.4692 251° West 322 371 10,000  Level FAA TRACON SMA TRACON (SMA)
08:35AM 39.7918 -76.0659 261° West  Level FlightAware Approximate
08:35AM 39.9122 -75.5114 252° West 321 369 10,000  Level FAA TRACON SMA TRACON (SMA)
08:35AM 39.9053 -75.5378 251° West 325 374 10,600 2,580 Climbing FAA TRACON SMA TRACON (SMA)
08:35AM 39.8942 -75.5811 252° West 327 376 11,700 3,360 Climbing FAA TRACON SMA TRACON (SMA)
08:36AM 39.8831 -75.6247 252° West 329 379 12,800 2,820 Climbing FAA TRACON SMA TRACON (SMA)
08:36AM 39.8750 -75.6592 253° West 331 381 13,600 2,220 Climbing FAA TRACON SMA TRACON (SMA)
08:36AM 39.8647 -75.6956 250° West 336 387 14,300 2,400 Climbing FAA TRACON SMA TRACON (SMA)
08:37AM 39.8531 -75.7394 251° West 340 391 15,200 2,520 Climbing FAA TRACON SMA TRACON (SMA)
08:37AM 39.8436 -75.7775 252° West 345 397 16,000 2,220 Climbing FAA TRACON SMA TRACON (SMA)
08:37AM 39.8364 -75.8156 256° West 354 407 16,700 2,400 Climbing FAA TRACON SMA TRACON (SMA)
08:38AM 39.8303 -75.8644 261° West 358 412 17,600 1,920 Climbing FAA TRACON SMA TRACON (SMA)
08:38AM 39.8267 -75.9036 263° West 357 411 18,000 720 Climbing FAA TRACON SMA TRACON (SMA)
08:38AM 39.8256 -75.9136 262° West 357 411 18,100 1,980 Climbing FAA TRACON SMA TRACON (SMA)
08:40AM 39.7989 -76.1533 262° West 369 425 22,100 2,040 Climbing New York Center
08:41AM 39.7639 -76.2803 250° West 369 425 23,700 1,560 Climbing New York Center
08:43AM 39.6833 -76.4814 243° Southwest 383 441 26,200 1,440 Climbing Washington Center
08:44AM 39.6364 -76.6156 246° West 394 453 27,400 1,080 Climbing Washington Center
08:45AM 39.5853 -76.7494 244° Southwest 407 468 28,400 1,320 Climbing Washington Center
08:46AM 39.5275 -76.8936 243° Southwest 412 474 30,100 1,440 Climbing Washington Center
08:47AM 39.4700 -77.0028 236° Southwest 412 474 31,300 1,200 Climbing Washington Center
08:48AM 39.3728 -77.1111 221° Southwest 412 474 32,500 1,200 Climbing Washington Center
08:49AM 39.2925 -77.1925 218° Southwest 429 494 33,700 720 Climbing Washington Center
08:50AM 39.1911 -77.2975 219° Southwest 429 494 34,000 120 Climbing Washington Center
08:51AM 39.0936 -77.3969 218° Southwest 439 505 34,000  Level Washington Center
08:52AM 39.0006 -77.4933 219° Southwest 439 505 34,000  Level Washington Center
08:53AM 38.9136 -77.5844 219° Southwest 445 512 34,000  Level Washington Center
08:54AM 38.8097 -77.6908 219° Southwest 445 512 34,000  Level Washington Center
08:55AM 38.7267 -77.7789 220° Southwest 445 512 34,000  Level Washington Center
08:56AM 38.6244 -77.8931 221° Southwest 445 512 34,000  Level Washington Center
08:57AM 38.5619 -78.0025 234° Southwest 439 505 34,000  Level Washington Center
08:58AM 38.4842 -78.1353 233° Southwest 439 505 34,000  Level Washington Center
08:59AM 38.4192 -78.2497 234° Southwest 439 505 34,000  Level Washington Center
09:00AM 38.3411 -78.3819 233° Southwest 439 505 34,000  Level Washington Center
09:01AM 38.2672 -78.5033 232° Southwest 444 511 34,000  Level Washington Center
09:02AM 38.1953 -78.6300 234° Southwest 444 511 34,000  Level Washington Center
09:03AM 38.1236 -78.7458 232° Southwest 444 511 34,000  Level Washington Center
09:04AM 38.0492 -78.8694 233° Southwest 444 511 34,000  Level Washington Center
09:05AM 37.9836 -78.9772 232° Southwest 444 511 34,000  Level Washington Center
09:06AM 37.9114 -79.1003 233° Southwest 444 511 34,000  Level Washington Center
09:07AM 37.8472 -79.2236 237° Southwest 444 511 34,000  Level Washington Center
09:08AM 37.7847 -79.3519 238° Southwest 439 505 34,000  Level Washington Center
09:09AM 37.7136 -79.4956 238° Southwest 434 499 34,000  Level Washington Center
09:10AM 37.6469 -79.6153 235° Southwest 429 494 34,000  Level Washington Center
09:11AM 37.5842 -79.7456 239° Southwest 429 494 34,000  Level Washington Center
09:12AM 37.5258 -79.8628 238° Southwest 429 494 34,000  Level Washington Center
09:14AM 37.3750 -80.1531 237° Southwest 439 505 34,000  Level Atlanta Center
09:15AM 37.3122 -80.2761 237° Southwest 439 505 34,000  Level Atlanta Center
09:16AM 37.2411 -80.4125 237° Southwest 433 498 34,000  Level Atlanta Center
09:17AM 37.1781 -80.5353 237° Southwest 433 498 34,000  Level Atlanta Center
09:18AM 37.1128 -80.6581 236° Southwest 433 498 34,000  Level Atlanta Center
09:19AM 37.0578 -80.7878 242° Southwest 426 490 34,000  Level Atlanta Center
09:20AM 37.0172 -80.9089 247° West 426 490 34,000  Level Atlanta Center
09:21AM 36.9472 -81.0233 233° Southwest 421 484 34,000  Level Atlanta Center
09:22AM 36.8686 -81.1353 229° Southwest 421 484 34,000  Level Atlanta Center
09:23AM 36.7983 -81.2519 233° Southwest 426 490 34,000  Level Atlanta Center
09:24AM 36.7325 -81.3864 239° Southwest 426 490 34,000  Level Atlanta Center
09:25AM 36.6683 -81.5103 237° Southwest 420 483 34,000  Level Atlanta Center
09:26AM 36.6122 -81.6181 237° Southwest 420 483 34,000  Level Atlanta Center
09:27AM 36.5519 -81.7386 238° Southwest 420 483 34,000  Level Atlanta Center
09:28AM 36.4875 -81.8672 238° Southwest 413 475 34,000  Level Atlanta Center
09:29AM 36.4289 -81.9744 236° Southwest 413 475 34,000  Level Atlanta Center
09:30AM 36.3661 -82.0922 237° Southwest 419 482 34,000  Level Atlanta Center
09:31AM 36.3033 -82.2122 237° Southwest 419 482 34,000  Level Atlanta Center
09:32AM 36.2403 -82.3294 236° Southwest 419 482 34,000  Level Atlanta Center
09:33AM 36.1733 -82.4569 237° Southwest 414 476 34,000  Level Atlanta Center
09:34AM 36.1122 -82.5736 237° Southwest 414 476 34,000  Level Atlanta Center
09:35AM 36.0508 -82.6878 236° Southwest 414 476 34,000  Level Atlanta Center
09:36AM 35.9894 -82.8044 237° Southwest 414 476 34,000  Level Atlanta Center
09:37AM 35.9281 -82.9206 237° Southwest 414 476 34,000  Level Atlanta Center
09:38AM 35.8644 -83.0342 235° Southwest 414 476 34,000  Level Atlanta Center
09:39AM 35.8047 -83.1503 238° Southwest 414 476 34,000  Level Atlanta Center
09:40AM 35.7431 -83.2686 237° Southwest 414 476 34,000  Level Atlanta Center
09:41AM 35.6789 -83.3842 236° Southwest 414 476 34,000  Level Atlanta Center
09:42AM 35.6189 -83.4972 237° Southwest 414 476 34,000  Level Atlanta Center
09:43AM 35.5547 -83.6150 236° Southwest 419 482 34,000  Level Atlanta Center
09:44AM 35.4906 -83.7275 235° Southwest 419 482 34,000  Level Atlanta Center
09:45AM 35.4261 -83.8475 237° Southwest 419 482 34,000  Level Atlanta Center
09:46AM 35.3697 -83.9469 235° Southwest 419 482 34,000  Level Atlanta Center
09:47AM 35.3053 -84.0667 237° Southwest 419 482 34,000  Level Atlanta Center
09:48AM 35.2406 -84.1811 235° Southwest 419 482 34,000  Level Atlanta Center
09:49AM 35.1756 -84.2953 235° Southwest 419 482 34,000  Level Atlanta Center
09:50AM 35.1128 -84.4119 237° Southwest 419 482 34,000  Level Atlanta Center
09:51AM 35.0475 -84.5258 235° Southwest 419 482 34,000  Level Atlanta Center
09:52AM 34.9825 -84.6422 236° Southwest 419 482 34,000  Level Atlanta Center
09:53AM 34.9150 -84.7581 235° Southwest 419 482 34,000  Level Atlanta Center
09:54AM 34.8517 -84.8767 237° Southwest 419 482 34,000  Level Atlanta Center
09:55AM 34.7861 -84.9897 235° Southwest 419 482 34,000  Level Atlanta Center
09:56AM 34.7183 -85.1078 235° Southwest 419 482 34,000  Level Atlanta Center
09:57AM 34.6525 -85.2231 235° Southwest 419 482 34,000  Level Atlanta Center
09:58AM 34.5847 -85.3381 234° Southwest 419 482 34,000  Level Atlanta Center
09:59AM 34.5186 -85.4556 236° Southwest 419 482 34,000  Level Atlanta Center
10:00AM 34.4525 -85.5731 236° Southwest 419 482 34,000  Level Atlanta Center
10:01AM 34.3800 -85.7000 235° Southwest 419 482 34,000  Level Atlanta Center
10:02AM 34.3158 -85.8144 236° Southwest 419 482 34,000  Level Atlanta Center
10:03AM 34.2453 -85.9211 231° Southwest 414 476 34,000  Level Atlanta Center
10:04AM 34.1808 -86.0350 236° Southwest 414 476 34,000  Level Atlanta Center
10:05AM 34.1144 -86.1489 235° Southwest 420 483 34,000  Level Atlanta Center
10:06AM 34.0456 -86.2650 234° Southwest 420 483 34,000  Level Atlanta Center
10:07AM 33.9808 -86.3761 235° Southwest 415 478 34,000  Level Atlanta Center
10:08AM 33.9269 -86.4672 235° Southwest 420 483 34,000  Level Atlanta Center
10:09AM 33.8447 -86.6050 234° Southwest 420 483 34,000  Level Atlanta Center
10:10AM 33.7756 -86.7203 234° Southwest 420 483 34,000  Level Atlanta Center
10:11AM 33.7103 -86.8331 235° Southwest 420 483 34,000  Level Atlanta Center
10:12AM 33.6411 -86.9433 233° Southwest 420 483 34,000  Level Atlanta Center
10:13AM 33.5675 -87.0531 231° Southwest 420 483 34,000  Level Atlanta Center
10:14AM 33.4958 -87.1600 231° Southwest 425 489 34,000  Level Atlanta Center
10:15AM 33.4242 -87.2694 232° Southwest 425 489 34,000  Level Atlanta Center
10:19AM 33.1664 -87.6522 231° Southwest 410 472 34,000  Level Memphis Center
10:20AM 33.0975 -87.7558 232° Southwest 410 472 34,000 -300 Level Memphis Center
10:21AM 33.0225 -87.8622 230° Southwest 410 472 33,400 -540 Descending Memphis Center
10:22AM 32.9617 -87.9556 232° Southwest 404 465 33,000 -240 Descending Memphis Center
10:23AM 32.8803 -88.0542 226° Southwest 409 471 33,000  Level Memphis Center
10:24AM 32.7986 -88.1553 226° Southwest 417 480 33,000  Level Memphis Center
10:25AM 32.7186 -88.2511 225° Southwest 417 480 33,000  Level Memphis Center
10:26AM 32.6369 -88.3467 225° Southwest 417 480 33,000  Level Memphis Center
10:27AM 32.5569 -88.4447 226° Southwest 417 480 33,000  Level Memphis Center
10:28AM 32.4769 -88.5400 225° Southwest 417 480 33,000  Level Memphis Center
10:29AM 32.3947 -88.6375 225° Southwest 417 480 33,000  Level Memphis Center
10:30AM 32.3128 -88.7350 225° Southwest 412 474 33,000  Level Memphis Center
10:31AM 32.2325 -88.8297 225° Southwest 412 474 33,000  Level Memphis Center
10:32AM 32.1522 -88.9244 225° Southwest 412 474 33,000  Level Memphis Center
10:33AM 32.0739 -89.0189 226° Southwest 412 474 33,000 -60 Level Memphis Center
10:34AM 31.9933 -89.1131 225° Southwest 407 468 32,900 -780 Descending Memphis Center
10:35AM 31.9128 -89.2047 224° Southwest 407 468 31,500 -1,500 Descending Memphis Center
10:36AM 31.7711 -89.3706 225° Southwest 410 472 28,800 -1,500 Descending Houston Center
10:37AM 31.6900 -89.4642 224° Southwest 412 474 27,400 -1,500 Descending Houston Center
10:38AM 31.5892 -89.5639 220° Southwest 399 459 25,700 -1,440 Descending Houston Center
10:39AM 31.5083 -89.6419 219° Southwest 385 443 24,400 -1,260 Descending Houston Center
10:41AM 31.4281 -89.7175 219° Southwest 375 432 23,100 -1,320 Descending Houston Center
10:42AM 31.3481 -89.7939 219° Southwest 372 428 21,700 -1,320 Descending Houston Center
10:43AM 31.2678 -89.8683 218° Southwest 370 426 20,400 -1,260 Descending Houston Center
10:44AM 31.1836 -89.9347 214° Southwest 368 423 19,100 -1,380 Descending Houston Center
10:45AM 31.0664 -89.9831 199° South 372 428 17,600 -1,440 Descending Houston Center
10:46AM 30.9708 -90.0228 200° South 369 425 16,200 -1,440 Descending Houston Center
10:47AM 30.8689 -90.0675 201° Southwest 367 422 14,800 -1,500 Descending Houston Center
10:47AM 30.8336 -90.0811 198° South 365 420 14,200 -1,260 Descending Houston Center
10:48AM 30.7800 -90.1025 199° South 365 420 13,400 -1,380 Descending Houston Center
10:48AM 30.7389 -90.1192 199° South 360 414 12,800 -1,380 Descending Houston Center
10:49AM 30.6903 -90.1433 203° Southwest 355 409 12,000 -1,440 Descending Houston Center
10:49AM 30.6525 -90.1686 210° Southwest 344 396 11,400 -1,680 Descending Houston Center
10:50AM 30.5936 -90.2025 206° Southwest 333 383 10,300 -1,320 Descending Houston Center
10:50AM 30.5747 -90.2153 210° Southwest 316 364 10,100 -1,080 Descending Houston Center
10:51AM 30.5231 -90.2456 207° Southwest 299 344 9,200 -1,320 Descending Houston Center
10:51AM 30.5047 -90.2567 208° Southwest 270 311 8,800 -1,800 Descending Houston Center
10:52AM 30.4572 -90.2864 208° Southwest 273 314 7,400 -1,800 Descending Houston Center
10:52AM 30.4331 -90.3006 207° Southwest 264 304 7,000 -1,560 Descending Houston Center
10:53AM 30.3939 -90.3244 208° Southwest 263 303 5,800 -1,680 Descending Houston Center
10:54AM 30.3325 -90.3619 208° Southwest 257 296 4,000 -960 Descending Houston Center
10:55AM 30.2625 -90.4086 210° Southwest 250 288 3,900 -60 Descending Houston Center
10:56AM 30.2119 -90.4367 206° Southwest 221 254 3,900 -660 Level Houston Center
10:57AM 30.1619 -90.4661 207° Southwest 209 241 2,600 -960 Descending Houston Center
10:58AM 30.1150 -90.4936 207° Southwest 200 230 2,000 -300 Descending Houston Center
10:59AM 30.0761 -90.5008 189° South 189 217 2,000  Level Houston Center
11:00AM 30.0486 -90.4622 129° Southeast 167 192 2,000 -60 Level Houston Center
11:01AM 30.0283 -90.4050 112° Southeast 167 192 1,900 -420 Descending Houston Center
11:02AM 30.0167 -90.3603 107° East 156 180 1,200 -720 Descending Houston Center